Friday, September 21, 2018, 9:25 PM EDT
Back to Local

KDDH, Bennington Morse State Airport

Location: Bennington, VT, United States Lat: 42.883
Local Time: 9:25 PM EDT ( 1:25 GMT) Lon: -73.25
Time Zone: US/Eastern Elev: 826 ft

Show me the last for .
Show Decoded

2018-09-21 20:54 METAR KDDH 220054Z AUTO 18011G24KT 160V220 10SM OVC018 21/17 A2990 RMK AO2
                 SLP120 T02110167 =
2018-09-21 19:54 METAR KDDH 212354Z AUTO 19014G24KT 10SM OVC019 21/16 A2989 RMK AO2 PK WND
                 20027/2326 SLP118 T02060161 10206 20189 58031 =
2018-09-21 18:54 METAR KDDH 212254Z AUTO 17009G23KT 140V200 10SM OVC019 20/16 A2992 RMK AO2 PK
                 WND 18026/2230 SLP129 T02000156 =
2018-09-21 17:54 METAR KDDH 212154Z AUTO VRB03KT 10SM OVC020 20/16 A2996 RMK AO2 SLP141 T02000156
                 =
2018-09-21 16:54 METAR KDDH 212054Z AUTO 10SM OVC021 19/15 A2999 RMK AO2 SLP151 T01940150 58031 =
2018-09-21 15:54 METAR KDDH 211954Z AUTO 16007G14KT 10SM OVC020 19/15 A3003 RMK AO2 SLP165
                 T01940150 =
2018-09-21 14:54 METAR KDDH 211854Z AUTO 17009KT 10SM OVC020 19/15 A3005 RMK AO2 SLP173 T01940150
                 =
2018-09-21 13:54 METAR KDDH 211754Z AUTO 17009G17KT 140V210 10SM OVC017 19/15 A3008 RMK AO2
                 SLP183 60000 T01890150 10194 20172 58023 =
2018-09-21 12:54 METAR KDDH 211654Z AUTO 17010G17KT 10SM OVC019 19/15 A3010 RMK AO2 SLP191
                 T01890150 =
2018-09-21 11:54 METAR KDDH 211554Z AUTO 17010G18KT 10SM OVC020 19/14 A3014 RMK AO2 SLP202
                 T01890144 =
2018-09-21 10:54 METAR KDDH 211454Z AUTO 16010G18KT 120V210 10SM OVC022 19/15 A3015 RMK AO2
                 SLP206 60000 T01940150 56022 =
2018-09-21 09:54 METAR KDDH 211354Z AUTO 15008KT 080V190 10SM OVC023 18/14 A3017 RMK AO2 SLP213
                 T01830139 =
2018-09-21 08:54 METAR KDDH 211254Z AUTO 00000KT 10SM SCT018 OVC023 18/14 A3019 RMK AO2 RAB19E33
                 SLP221 P0000 T01780139 =
2018-09-21 07:54 METAR KDDH 211154Z AUTO 17005G16KT 10SM OVC023 17/13 A3022 RMK AO2 SLP229 60000
                 T01720133 10172 20167 55000 =
2018-09-21 06:54 METAR KDDH 211054Z AUTO 00000KT 10SM SCT017 OVC026 17/13 A3021 RMK AO2 SLP229
                 T01720133 =
2018-09-21 05:54 METAR KDDH 210954Z AUTO 07006KT 10SM OVC017 17/13 A3020 RMK AO2 SLP224 T01720133
                 =
2018-09-21 04:54 METAR KDDH 210854Z AUTO 07007KT 10SM OVC015 17/13 A3022 RMK AO2 SLP228 60000
                 T01670133 58003 =
2018-09-21 04:41 METAR KDDH 210841Z AUTO VRB05KT 10SM OVC014 17/13 A3021 RMK AO2 T01670133 =
2018-09-21 03:54 METAR KDDH 210754Z AUTO 09005KT 10SM OVC016 17/13 A3021 RMK AO2 RAE03 SLP228
                 P0000 T01670133 =
2018-09-21 02:54 METAR KDDH 210654Z AUTO 10008KT 10SM -RA OVC018 17/13 A3023 RMK AO2 RAB49 SLP232
                 P0000 T01670133 =
2018-09-21 01:54 METAR KDDH 210554Z AUTO 09006KT 10SM OVC018 17/13 A3022 RMK AO2 SLP232 T01720128
                 10178 20172 58005 =
2018-09-21 01:31 METAR KDDH 210531Z AUTO 07007KT 10SM BKN019 BKN025 OVC044 17/13 A3022 RMK AO2
                 T01720128 =
2018-09-21 00:54 METAR KDDH 210454Z AUTO VRB06KT 10SM BKN090 OVC110 17/12 A3024 RMK AO2 SLP237
                 T01720122 402170128 =
2018-09-20 23:54 METAR KDDH 210354Z AUTO 08007KT 10SM BKN100 BKN110 17/12 A3024 RMK AO2 SLP238
                 T01720122 =
2018-09-20 22:54 METAR KDDH 210254Z AUTO VRB03KT 10SM FEW043 SCT095 18/12 A3024 RMK AO2 SLP238
                 T01780122 58001 =
2018-09-20 21:54 METAR KDDH 210154Z AUTO 09004KT 10SM BKN039 18/12 A3024 RMK AO2 SLP237 T01780122
                 =

Support USWX by starting your Amazon purchase here.